Observation data for Pampa on 01/19/2019      Previous  Date  Next       Current Mesonet Observations  Soil Data  Daily Summary Page  Observations in Plain Language
KPMS 190600Z 35025G36KT M01/M03 A30 RMK A01 T10141025  RH  093%=      5-min Rain = 0
KPMS 190605Z 35025G32KT M01/M03 A30 RMK A01 T10141025  RH  093%=      5-min Rain = 0
KPMS 190610Z 35024G31KT M01/M02 A30 RMK A01 T10141024  RH  094%=      5-min Rain = 0
KPMS 190615Z 35027G35KT M02/M02 A30 RMK A01 T10151024  RH  095%=      5-min Rain = 0
KPMS 190620Z 35024G33KT M02/M02 A30 RMK A01 T10151023  RH  095%=      5-min Rain = 0
KPMS 190625Z 34024G32KT M02/M02 A30 RMK A01 T10151022  RH  096%=      5-min Rain = 0
KPMS 190630Z 34027G33KT M02/M02 A3001 RMK A01 T10151022  RH  096%=      5-min Rain = 0
KPMS 190635Z 34027G34KT M01/M02 A3001 RMK A01 T10141021  RH  096%=      5-min Rain = 0
KPMS 190640Z 34026G35KT M01/M02 A3001 RMK A01 T10141020  RH  097%=      5-min Rain = 0
KPMS 190645Z 34024G32KT M02/M02 A3002 RMK A01 T10151020  RH  098%=      5-min Rain = 0
KPMS 190650Z 34026G34KT M02/M02 A3002 RMK A01 T10151019  RH  098%=      5-min Rain = 0
KPMS 190655Z 34025G32KT M01/M02 A3002 RMK A01 T10141019  RH  098%=      5-min Rain = 0
KPMS 190700Z 34024G32KT M01/M02 A3002 RMK A01 T10141019  RH  097%=      5-min Rain = 0
KPMS 190705Z 34026G33KT M02/M02 A3002 RMK A01 T10151020  RH  097%=      5-min Rain = 0
KPMS 190710Z 34029G38KT M02/M03 A3002 RMK A01 T10171028  RH  094%=      5-min Rain = 0
KPMS 190715Z 34029G39KT M02/M03 A3003 RMK A01 T10191032  RH  091%=      5-min Rain = 0
KPMS 190720Z 34031G39KT M02/M04 A3003 RMK A01 T10191035  RH  090%=      5-min Rain = 0
KPMS 190725Z 34030G37KT M02/M04 A3003 RMK A01 T10211038  RH  090%=      5-min Rain = 0
KPMS 190730Z 34032G40KT M02/M04 A3004 RMK A01 T10241040  RH  089%=      5-min Rain = 0
KPMS 190735Z 34027G34KT M03/M04 A3004 RMK A01 T10261042  RH  090%=      5-min Rain = 0
KPMS 190740Z 34030G39KT M03/M04 A3004 RMK A01 T10281044  RH  089%=      5-min Rain = 0
KPMS 190745Z 34030G38KT M03/M05 A3004 RMK A01 T10291046  RH  089%=      5-min Rain = 0
KPMS 190750Z 34029G37KT M03/M05 A3004 RMK A01 T10301047  RH  089%=      5-min Rain = 0
KPMS 190755Z 34032G39KT M03/M05 A3004 RMK A01 T10311049  RH  089%=      5-min Rain = 0
KPMS 190800Z 34033G43KT M03/M05 A3005 RMK A01 T10321049  RH  088%=      5-min Rain = 0
KPMS 190805Z 34031G39KT M03/M05 A3005 RMK A01 T10321049  RH  089%=      5-min Rain = 0
KPMS 190810Z 34028G34KT M03/M05 A3005 RMK A01 T10321048  RH  090%=      5-min Rain = 0
KPMS 190815Z 34027G33KT M03/M05 A3005 RMK A01 T10321047  RH  090%=      5-min Rain = 0
KPMS 190820Z 33028G36KT M03/M05 A3006 RMK A01 T10311047  RH  090%=      5-min Rain = 0
KPMS 190825Z 33027G36KT M03/M05 A3006 RMK A01 T10311048  RH  089%=      5-min Rain = 0
KPMS 190830Z 34030G41KT M03/M05 A3006 RMK A01 T10311050  RH  088%=      5-min Rain = 0
KPMS 190835Z 33029G40KT M03/M05 A3006 RMK A01 T10331052  RH  088%=      5-min Rain = 0
KPMS 190840Z 34026G33KT M03/M05 A3007 RMK A01 T10331053  RH  087%=      5-min Rain = 0
KPMS 190845Z 33025G33KT M03/M05 A3007 RMK A01 T10341054  RH  087%=      5-min Rain = 0
KPMS 190850Z 33026G35KT M03/M05 A3007 RMK A01 T10341054  RH  087%=      5-min Rain = 0
KPMS 190855Z 33024G33KT M04/M06 A3007 RMK A01 T10351055  RH  087%=      5-min Rain = 0
KPMS 190900Z 33023G30KT M04/M06 A3008 RMK A01 T10381056  RH  088%=      5-min Rain = 0
KPMS 190905Z 33024G32KT M04/M06 A3008 RMK A01 T10391057  RH  089%=      5-min Rain = 0
KPMS 190910Z 33023G30KT M04/M06 A3009 RMK A01 T10391057  RH  088%=      5-min Rain = 0
KPMS 190915Z 34026G34KT M04/M06 A3009 RMK A01 T10381058  RH  087%=      5-min Rain = 0
KPMS 190920Z 33025G31KT M04/M06 A3009 RMK A01 T10381057  RH  088%=      5-min Rain = 0
KPMS 190925Z 33021G28KT M04/M06 A301 RMK A01 T10391057  RH  088%=      5-min Rain = 0
KPMS 190930Z 33023G29KT M04/M06 A301 RMK A01 T10391057  RH  088%=      5-min Rain = 0
KPMS 190935Z 33027G35KT M04/M06 A301 RMK A01 T10381058  RH  087%=      5-min Rain = 0
KPMS 190940Z 33024G29KT M04/M06 A301 RMK A01 T10391059  RH  087%=      5-min Rain = 0
KPMS 190945Z 33025G35KT M04/M06 A301 RMK A01 T10401060  RH  087%=      5-min Rain = 0
KPMS 190950Z 33028G36KT M04/M06 A301 RMK A01 T10411063  RH  086%=      5-min Rain = 0
KPMS 190955Z 34028G36KT M04/M06 A301 RMK A01 T10431064  RH  086%=      5-min Rain = 0
KPMS 191000Z 34026G33KT M04/M06 A301 RMK A01 T10441064  RH  087%=      5-min Rain = 0
KPMS 191005Z 33022G29KT M05/M06 A3011 RMK A01 T10451063  RH  088%=      5-min Rain = 0
KPMS 191010Z 33021G27KT M05/M06 A3011 RMK A01 T10461063  RH  089%=      5-min Rain = 0
KPMS 191015Z 33022G27KT M05/M06 A3011 RMK A01 T10451062  RH  089%=      5-min Rain = 0
KPMS 191020Z 33022G33KT M05/M06 A3011 RMK A01 T10451062  RH  089%=      5-min Rain = 0
KPMS 191025Z 33022G28KT M05/M06 A3011 RMK A01 T10451063  RH  088%=      5-min Rain = 0
KPMS 191030Z 33025G32KT M05/M06 A3011 RMK A01 T10451064  RH  088%=      5-min Rain = 0
KPMS 191035Z 33025G33KT M05/M06 A3011 RMK A01 T10451064  RH  088%=      5-min Rain = 0
KPMS 191040Z 33021G26KT M05/M06 A3012 RMK A01 T10451064  RH  088%=      5-min Rain = 0
KPMS 191045Z 33024G29KT M05/M06 A3012 RMK A01 T10451064  RH  088%=      5-min Rain = 0
KPMS 191050Z 33023G29KT M05/M06 A3013 RMK A01 T10451063  RH  088%=      5-min Rain = 0
KPMS 191055Z 33022G30KT M05/M06 A3013 RMK A01 T10451063  RH  089%=      5-min Rain = 0
KPMS 191100Z 33023G30KT M05/M06 A3013 RMK A01 T10451062  RH  089%=      5-min Rain = 0
KPMS 191105Z 33024G32KT M04/M06 A3013 RMK A01 T10441061  RH  089%=      5-min Rain = 0
KPMS 191110Z 33022G31KT M04/M06 A3013 RMK A01 T10441061  RH  089%=      5-min Rain = 0
KPMS 191115Z 34022G27KT M04/M06 A3013 RMK A01 T10441060  RH  090%=      5-min Rain = 0
KPMS 191120Z 33023G30KT M04/M06 A3013 RMK A01 T10441059  RH  090%=      5-min Rain = 0
KPMS 191125Z 33021KT M04/M06 A3013 RMK A01 T10441059  RH  090%=      5-min Rain = 0
KPMS 191130Z 33020KT M04/M06 A3013 RMK A01 T10441058  RH  091%=      5-min Rain = 0
KPMS 191135Z 33023G30KT M04/M06 A3014 RMK A01 T10431056  RH  091%=      5-min Rain = 0
KPMS 191140Z 33026G32KT M04/M06 A3014 RMK A01 T10411055  RH  091%=      5-min Rain = 0
KPMS 191145Z 33024G33KT M04/M06 A3014 RMK A01 T10401055  RH  091%=      5-min Rain = 0
KPMS 191150Z 33025G31KT M04/M05 A3014 RMK A01 T10401054  RH  091%=      5-min Rain = 0
KPMS 191155Z 33025G33KT M04/M05 A3014 RMK A01 T10401054  RH  091%=      5-min Rain = 0
KPMS 191200Z 33025G34KT M04/M05 A3014 RMK A01 T10391054  RH  091%=      5-min Rain = 0
KPMS 191205Z 33026G34KT M04/M05 A3015 RMK A01 T10381054  RH  090%=      5-min Rain = 0
KPMS 191210Z 33021G27KT M04/M05 A3015 RMK A01 T10391053  RH  091%=      5-min Rain = 0
KPMS 191215Z 33024G30KT M04/M05 A3015 RMK A01 T10391054  RH  091%=      5-min Rain = 0
KPMS 191220Z 33025G33KT M04/M05 A3015 RMK A01 T10381054  RH  090%=      5-min Rain = 0
KPMS 191225Z 33022G27KT M04/M05 A3016 RMK A01 T10391053  RH  091%=      5-min Rain = 0
KPMS 191230Z 33025G31KT M04/M05 A3016 RMK A01 T10391053  RH  091%=      5-min Rain = 0
KPMS 191235Z 33021G27KT M04/M05 A3016 RMK A01 T10391053  RH  091%=      5-min Rain = 0
KPMS 191240Z 33022KT M04/M05 A3017 RMK A01 T10391053  RH  091%=      5-min Rain = 0
KPMS 191245Z 33021G27KT M04/M05 A3017 RMK A01 T10381053  RH  091%=      5-min Rain = 0
KPMS 191250Z 33020G26KT M04/M05 A3017 RMK A01 T10381052  RH  091%=      5-min Rain = 0
KPMS 191255Z 33020G26KT M04/M05 A3017 RMK A01 T10381053  RH  090%=      5-min Rain = 0
KPMS 191300Z 33019G25KT M04/M05 A3017 RMK A01 T10381053  RH  091%=      5-min Rain = 0
KPMS 191305Z 34019G26KT M04/M05 A3018 RMK A01 T10381053  RH  091%=      5-min Rain = 0
KPMS 191310Z 34019G24KT M04/M05 A3018 RMK A01 T10391052  RH  091%=      5-min Rain = 0
KPMS 191315Z 34019KT M04/M05 A3018 RMK A01 T10391052  RH  092%=      5-min Rain = 0
KPMS 191320Z 34020G27KT M04/M05 A3018 RMK A01 T10391051  RH  092%=      5-min Rain = 0
KPMS 191325Z 34021KT M04/M05 A3018 RMK A01 T10391051  RH  093%=      5-min Rain = 0
KPMS 191330Z 34021G29KT M04/M05 A3019 RMK A01 T10391052  RH  092%=      5-min Rain = 0
KPMS 191335Z 33025G33KT M04/M05 A3019 RMK A01 T10391054  RH  091%=      5-min Rain = 0
KPMS 191340Z 34025G32KT M04/M06 A3019 RMK A01 T10401056  RH  090%=      5-min Rain = 0
KPMS 191345Z 34022G29KT M04/M06 A302 RMK A01 T10411057  RH  090%=      5-min Rain = 0
KPMS 191350Z 34020G26KT M04/M06 A302 RMK A01 T10421056  RH  090%=      5-min Rain = 0
KPMS 191355Z 34021G27KT M04/M06 A3021 RMK A01 T10411057  RH  090%=      5-min Rain = 0
KPMS 191400Z 34018G24KT M04/M06 A3021 RMK A01 T10411057  RH  090%=      5-min Rain = 0
KPMS 191405Z 34017KT M04/M06 A3021 RMK A01 T10421057  RH  090%=      5-min Rain = 0
KPMS 191410Z 34015G21KT M04/M06 A3021 RMK A01 T10421057  RH  091%=      5-min Rain = 0
KPMS 191415Z 34018KT M04/M06 A3021 RMK A01 T10411055  RH  091%=      5-min Rain = 0
KPMS 191420Z 34021G27KT M04/M05 A3022 RMK A01 T10391054  RH  091%=      5-min Rain = 0
KPMS 191425Z 34023G36KT M04/M05 A3022 RMK A01 T10371053  RH  090%=      5-min Rain = 0
KPMS 191430Z 34025G36KT M04/M05 A3022 RMK A01 T10361054  RH  089%=      5-min Rain = 0
KPMS 191435Z 34025G31KT M04/M06 A3021 RMK A01 T10361055  RH  088%=      5-min Rain = 0
KPMS 191440Z 34026G33KT M04/M06 A3022 RMK A01 T10351056  RH  087%=      5-min Rain = 0
KPMS 191445Z 33024G31KT M04/M06 A3022 RMK A01 T10351056  RH  087%=      5-min Rain = 0
KPMS 191450Z 34023G32KT M04/M06 A3022 RMK A01 T10361056  RH  087%=      5-min Rain = 0
KPMS 191455Z 33025G31KT M04/M06 A3022 RMK A01 T10351055  RH  087%=      5-min Rain = 0
KPMS 191500Z 34022G30KT M04/M05 A3023 RMK A01 T10351054  RH  087%=      5-min Rain = 0
KPMS 191505Z 34023G31KT M03/M05 A3024 RMK A01 T10341054  RH  087%=      5-min Rain = 0
KPMS 191510Z 34025G32KT M03/M05 A3024 RMK A01 T10331054  RH  086%=      5-min Rain = 0
KPMS 191515Z 34026G34KT M03/M05 A3024 RMK A01 T10331054  RH  086%=      5-min Rain = 0
KPMS 191520Z 34025G32KT M03/M05 A3025 RMK A01 T10331054  RH  086%=      5-min Rain = 0
KPMS 191525Z 34022G31KT M03/M05 A3025 RMK A01 T10321054  RH  086%=      5-min Rain = 0
KPMS 191530Z 34021G27KT M03/M05 A3025 RMK A01 T10321053  RH  086%=      5-min Rain = 0
KPMS 191535Z 34023G29KT M03/M05 A3025 RMK A01 T10321054  RH  085%=      5-min Rain = 0
KPMS 191540Z 34024G30KT M03/M05 A3026 RMK A01 T10321054  RH  085%=      5-min Rain = 0
KPMS 191545Z 34024G31KT M03/M05 A3025 RMK A01 T10311053  RH  085%=      5-min Rain = 0
KPMS 191550Z 34023G30KT M03/M05 A3026 RMK A01 T10301052  RH  085%=      5-min Rain = 0
KPMS 191555Z 34022G28KT M03/M05 A3026 RMK A01 T10291051  RH  086%=      5-min Rain = 0
KPMS 191600Z 33022G31KT M03/M05 A3026 RMK A01 T10291051  RH  086%=      5-min Rain = 0
KPMS 191605Z 34025G32KT M03/M05 A3027 RMK A01 T10291053  RH  085%=      5-min Rain = 0
KPMS 191610Z 34024G31KT M03/M05 A3027 RMK A01 T10281052  RH  085%=      5-min Rain = 0
KPMS 191615Z 34023G30KT M03/M05 A3027 RMK A01 T10261050  RH  085%=      5-min Rain = 0
KPMS 191620Z 34026G32KT M03/M05 A3027 RMK A01 T10261052  RH  083%=      5-min Rain = 0
KPMS 191625Z 34024G33KT M03/M05 A3027 RMK A01 T10251051  RH  083%=      5-min Rain = 0
KPMS 191630Z 34025G32KT M02/M05 A3028 RMK A01 T10241052  RH  082%=      5-min Rain = 0
KPMS 191635Z 34027G33KT M03/M05 A3028 RMK A01 T10261054  RH  082%=      5-min Rain = 0
KPMS 191640Z 34026G33KT M03/M05 A3029 RMK A01 T10261054  RH  082%=      5-min Rain = 0
KPMS 191645Z 34025G31KT M03/M05 A3029 RMK A01 T10251053  RH  082%=      5-min Rain = 0
KPMS 191650Z 34024G32KT M02/M05 A3029 RMK A01 T10231051  RH  082%=      5-min Rain = 0
KPMS 191655Z 34023G31KT M02/M05 A3029 RMK A01 T10231051  RH  082%=      5-min Rain = 0
KPMS 191700Z 34023G32KT M02/M05 A303 RMK A01 T10221051  RH  082%=      5-min Rain = 0
KPMS 191705Z 34024G31KT M02/M05 A303 RMK A01 T10211051  RH  081%=      5-min Rain = 0
KPMS 191710Z 34024G29KT M02/M05 A303 RMK A01 T10221051  RH  081%=      5-min Rain = 0
KPMS 191715Z 34024G30KT M02/M05 A303 RMK A01 T10211051  RH  081%=      5-min Rain = 0
KPMS 191720Z 35023G28KT M02/M05 A3029 RMK A01 T10201049  RH  081%=      5-min Rain = 0
KPMS 191725Z 35022G28KT M02/M05 A3029 RMK A01 T10181047  RH  081%=      5-min Rain = 0
KPMS 191730Z 34022G28KT M02/M05 A3029 RMK A01 T10171047  RH  081%=      5-min Rain = 0
KPMS 191735Z 35022G29KT M02/M05 A303 RMK A01 T10151046  RH  081%=      5-min Rain = 0
KPMS 191740Z 34022G28KT M02/M05 A303 RMK A01 T10151046  RH  080%=      5-min Rain = 0
KPMS 191745Z 34021G28KT M01/M04 A303 RMK A01 T10131044  RH  080%=      5-min Rain = 0
KPMS 191750Z 33023G29KT M01/M04 A303 RMK A01 T10121044  RH  079%=      5-min Rain = 0
KPMS 191755Z 34022G27KT M02/M05 A303 RMK A01 T10151046  RH  080%=      5-min Rain = 0
KPMS 191800Z 34021G27KT M01/M05 A303 RMK A01 T10141045  RH  080%=      5-min Rain = 0
KPMS 191805Z 34021G27KT M01/M04 A303 RMK A01 T10111043  RH  080%=      5-min Rain = 0
KPMS 191810Z 33024G29KT M01/M04 A303 RMK A01 T10111044  RH  079%=      5-min Rain = 0
KPMS 191815Z 33023G31KT M01/M04 A303 RMK A01 T10091042  RH  079%=      5-min Rain = 0
KPMS 191820Z 33022G29KT M01/M04 A3029 RMK A01 T10071041  RH  079%=      5-min Rain = 0
KPMS 191825Z 34021G26KT M00/M04 A3029 RMK A01 T10031039  RH  077%=      5-min Rain = 0
KPMS 191830Z 34022KT M00/M04 A3029 RMK A01 T10041041  RH  077%=      5-min Rain = 0
KPMS 191835Z 33022G27KT M00/M04 A3029 RMK A01 T10031040  RH  076%=      5-min Rain = 0
KPMS 191840Z 33022G27KT 00/04 A3029 RMK A01 T00-00-40  RH  076%=      5-min Rain = 0
KPMS 191845Z 33021G26KT 00/M04 A3028 RMK A01 T00031039  RH  074%=      5-min Rain = 0
KPMS 191850Z 34022KT 00/M04 A3028 RMK A01 T00041041  RH  073%=      5-min Rain = 0
KPMS 191855Z 34020G26KT 01/M04 A3028 RMK A01 T00051041  RH  072%=      5-min Rain = 0
KPMS 191900Z 34022G27KT 01/M04 A3028 RMK A01 T00071043  RH  070%=      5-min Rain = 0
KPMS 191905Z 33018G24KT 01/M04 A3027 RMK A01 T00061042  RH  071%=      5-min Rain = 0
KPMS 191910Z 33020G26KT 01/M04 A3027 RMK A01 T00091041  RH  070%=      5-min Rain = 0
KPMS 191915Z 33021G26KT 01/M04 A3026 RMK A01 T00101043  RH  069%=      5-min Rain = 0
KPMS 191920Z 33019G26KT 01/M04 A3026 RMK A01 T00101041  RH  069%=      5-min Rain = 0
KPMS 191925Z 34019G25KT 01/M04 A3026 RMK A01 T00111041  RH  069%=      5-min Rain = 0
KPMS 191930Z 33018G23KT 01/M04 A3026 RMK A01 T00131040  RH  068%=      5-min Rain = 0
KPMS 191935Z 34020G26KT 01/M04 A3026 RMK A01 T00131042  RH  068%=      5-min Rain = 0
KPMS 191940Z 33021KT 01/M04 A3026 RMK A01 T00131041  RH  068%=      5-min Rain = 0
KPMS 191945Z 33019G25KT 01/M04 A3025 RMK A01 T00131040  RH  068%=      5-min Rain = 0
KPMS 191950Z 33019G24KT 02/M04 A3025 RMK A01 T00181039  RH  067%=      5-min Rain = 0
KPMS 191955Z 33019G25KT 02/M04 A3025 RMK A01 T00171039  RH  067%=      5-min Rain = 0
KPMS 192000Z 34019KT 02/M04 A3025 RMK A01 T00201038  RH  066%=      5-min Rain = 0
KPMS 192005Z 33019G25KT 02/M04 A3024 RMK A01 T00201038  RH  066%=      5-min Rain = 0
KPMS 192010Z 33020G26KT 02/M04 A3024 RMK A01 T00191039  RH  066%=      5-min Rain = 0
KPMS 192015Z 33022G27KT 02/M04 A3024 RMK A01 T00191038  RH  066%=      5-min Rain = 0
KPMS 192020Z 32021G26KT 02/M04 A3023 RMK A01 T00191038  RH  067%=      5-min Rain = 0
KPMS 192025Z 32021G27KT 02/M04 A3023 RMK A01 T00211037  RH  066%=      5-min Rain = 0
KPMS 192030Z 33018G24KT 02/M04 A3023 RMK A01 T00211036  RH  067%=      5-min Rain = 0
KPMS 192035Z 33019G25KT 02/M04 A3023 RMK A01 T00241035  RH  066%=      5-min Rain = 0
KPMS 192040Z 32019G27KT 02/M04 A3023 RMK A01 T00231035  RH  066%=      5-min Rain = 0
KPMS 192045Z 32020KT 02/M04 A3023 RMK A01 T00211035  RH  067%=      5-min Rain = 0
KPMS 192050Z 33018G23KT 02/M03 A3023 RMK A01 T00231033  RH  067%=      5-min Rain = 0
KPMS 192055Z 33019G24KT 02/M03 A3023 RMK A01 T00241033  RH  066%=      5-min Rain = 0
KPMS 192100Z 34019KT 02/M03 A3023 RMK A01 T00241033  RH  067%=      5-min Rain = 0
KPMS 192105Z 33018G23KT 03/M03 A3023 RMK A01 T00261032  RH  066%=      5-min Rain = 0
KPMS 192110Z 32018KT 03/M03 A3023 RMK A01 T00251032  RH  067%=      5-min Rain = 0
KPMS 192115Z 32018KT 03/M03 A3023 RMK A01 T00251031  RH  067%=      5-min Rain = 0
KPMS 192120Z 33018G23KT 03/M03 A3023 RMK A01 T00261031  RH  066%=      5-min Rain = 0
KPMS 192125Z 33017G24KT 03/M03 A3023 RMK A01 T00261031  RH  067%=      5-min Rain = 0
KPMS 192130Z 32017KT 03/M03 A3024 RMK A01 T00281030  RH  067%=      5-min Rain = 0
KPMS 192135Z 32017KT 03/M03 A3024 RMK A01 T00261030  RH  067%=      5-min Rain = 0
KPMS 192140Z 32016G21KT 03/M03 A3024 RMK A01 T00261029  RH  068%=      5-min Rain = 0
KPMS 192145Z 32017KT 03/M03 A3024 RMK A01 T00271030  RH  067%=      5-min Rain = 0
KPMS 192150Z 33016G21KT 03/M03 A3024 RMK A01 T00261030  RH  067%=      5-min Rain = 0
KPMS 192155Z 33015KT 03/M03 A3024 RMK A01 T00271029  RH  068%=      5-min Rain = 0
KPMS 192200Z 33013KT 03/M03 A3025 RMK A01 T00301027  RH  067%=      5-min Rain = 0
KPMS 192205Z 33015KT 03/M03 A3025 RMK A01 T00281028  RH  067%=      5-min Rain = 0
KPMS 192210Z 32013KT 03/M03 A3025 RMK A01 T00271028  RH  067%=      5-min Rain = 0
KPMS 192215Z 33015KT 03/M03 A3025 RMK A01 T00281028  RH  067%=      5-min Rain = 0
KPMS 192220Z 32014KT 03/M03 A3025 RMK A01 T00271028  RH  068%=      5-min Rain = 0
KPMS 192225Z 32014KT 03/M03 A3025 RMK A01 T00281028  RH  068%=      5-min Rain = 0
KPMS 192230Z 32013KT 03/M03 A3025 RMK A01 T00271027  RH  068%=      5-min Rain = 0
KPMS 192235Z 32014KT 03/M03 A3024 RMK A01 T00271027  RH  068%=      5-min Rain = 0
KPMS 192240Z 33013KT 03/M03 A3024 RMK A01 T00271027  RH  068%=      5-min Rain = 0
KPMS 192245Z 31014KT 03/M03 A3024 RMK A01 T00271026  RH  069%=      5-min Rain = 0
KPMS 192250Z 32012KT 03/M03 A3025 RMK A01 T00251027  RH  069%=      5-min Rain = 0
KPMS 192255Z 33013KT 03/M03 A3025 RMK A01 T00251026  RH  069%=      5-min Rain = 0
KPMS 192300Z 32012KT 03/M03 A3025 RMK A01 T00251026  RH  070%=      5-min Rain = 0
KPMS 192305Z 32012KT 02/M03 A3025 RMK A01 T00241027  RH  070%=      5-min Rain = 0
KPMS 192310Z 32012KT 02/M03 A3025 RMK A01 T00221027  RH  071%=      5-min Rain = 0
KPMS 192315Z 33011KT 02/M03 A3025 RMK A01 T00221027  RH  071%=      5-min Rain = 0
KPMS 192320Z 32011KT 02/M03 A3026 RMK A01 T00211027  RH  071%=      5-min Rain = 0
KPMS 192325Z 32010KT 02/M03 A3026 RMK A01 T00191027  RH  072%=      5-min Rain = 0
KPMS 192330Z 31011KT 02/M03 A3026 RMK A01 T00171027  RH  073%=      5-min Rain = 0
KPMS 192335Z 31010KT 02/M03 A3026 RMK A01 T00161027  RH  074%=      5-min Rain = 0
KPMS 192340Z 31009KT 02/M03 A3026 RMK A01 T00151027  RH  075%=      5-min Rain = 0
KPMS 192345Z 32010KT 01/M03 A3026 RMK A01 T00131027  RH  075%=      5-min Rain = 0
KPMS 192350Z 32009KT 01/M03 A3026 RMK A01 T00111028  RH  076%=      5-min Rain = 0
KPMS 192355Z 32008KT 01/M03 A3026 RMK A01 T00071030  RH  077%=      5-min Rain = 0
KPMS 200000Z 32008KT 01/M03 A3026 RMK A01 T00051030  RH  079%=      5-min Rain = 0
KPMS 200005Z 31006KT 00/M03 A3026 RMK A01 T00011032  RH  080%=      5-min Rain = 0
KPMS 200010Z 31007KT M00/M03 A3026 RMK A01 T10031033  RH  081%=      5-min Rain = 0
KPMS 200015Z 30006KT M00/M03 A3026 RMK A01 T10041032  RH  082%=      5-min Rain = 0
KPMS 200020Z 30006KT M00/M03 A3026 RMK A01 T10031032  RH  082%=      5-min Rain = 0
KPMS 200025Z 32006KT M01/M04 A3026 RMK A01 T10061036  RH  081%=      5-min Rain = 0
KPMS 200030Z 32005KT M01/M04 A3026 RMK A01 T10121038  RH  083%=      5-min Rain = 0
KPMS 200035Z 32005KT M02/M04 A3026 RMK A01 T10151038  RH  085%=      5-min Rain = 0
KPMS 200040Z 32006KT M02/M04 A3026 RMK A01 T10171039  RH  086%=      5-min Rain = 0
KPMS 200045Z 31005KT M02/M04 A3026 RMK A01 T10151035  RH  087%=      5-min Rain = 0
KPMS 200050Z 30005KT M01/M03 A3026 RMK A01 T10111032  RH  087%=      5-min Rain = 0
KPMS 200055Z 29005KT M01/M03 A3026 RMK A01 T10091031  RH  086%=      5-min Rain = 0
KPMS 200100Z 30003KT M01/M04 A3026 RMK A01 T10101036  RH  084%=      5-min Rain = 0
KPMS 200105Z 30004KT M02/M04 A3026 RMK A01 T10201044  RH  084%=      5-min Rain = 0
KPMS 200110Z 29004KT M02/M04 A3025 RMK A01 T10221042  RH  088%=      5-min Rain = 0
KPMS 200115Z 30004KT M02/M04 A3025 RMK A01 T10191037  RH  088%=      5-min Rain = 0
KPMS 200120Z 32004KT M02/M04 A3025 RMK A01 T10201040  RH  088%=      5-min Rain = 0
KPMS 200125Z 33003KT M02/M04 A3025 RMK A01 T10221041  RH  088%=      5-min Rain = 0
KPMS 200130Z 33000KT M02/M04 A3025 RMK A01 T10241041  RH  089%=      5-min Rain = 0
KPMS 200135Z 33000KT M02/M04 A3024 RMK A01 T10221037  RH  091%=      5-min Rain = 0
KPMS 200140Z 33000KT M02/M03 A3024 RMK A01 T10181033  RH  091%=      5-min Rain = 0
KPMS 200145Z 32002KT M02/M04 A3024 RMK A01 T10191035  RH  089%=      5-min Rain = 0
KPMS 200150Z 33002KT M02/M04 A3024 RMK A01 T10211037  RH  089%=      5-min Rain = 0
KPMS 200155Z 33002KT M02/M04 A3024 RMK A01 T10241041  RH  089%=      5-min Rain = 0
KPMS 200200Z 34002KT M03/M05 A3024 RMK A01 T10301047  RH  089%=      5-min Rain = 0
KPMS 200205Z 35002KT M03/M05 A3025 RMK A01 T10331047  RH  091%=      5-min Rain = 0
KPMS 200210Z 34002KT M03/M04 A3025 RMK A01 T10301043  RH  092%=      5-min Rain = 0
KPMS 200215Z 31002KT M03/M04 A3026 RMK A01 T10311043  RH  092%=      5-min Rain = 0
KPMS 200220Z 29002KT M03/M04 A3026 RMK A01 T10281040  RH  093%=      5-min Rain = 0
KPMS 200225Z 31002KT M03/M04 A3026 RMK A01 T10261037  RH  093%=      5-min Rain = 0
KPMS 200230Z 30003KT M02/M03 A3026 RMK A01 T10241034  RH  094%=      5-min Rain = 0
KPMS 200235Z 30002KT M02/M03 A3026 RMK A01 T10221033  RH  093%=      5-min Rain = 0
KPMS 200240Z 30002KT M02/M03 A3026 RMK A01 T10221033  RH  093%=      5-min Rain = 0
KPMS 200245Z 29003KT M02/M03 A3026 RMK A01 T10211032  RH  093%=      5-min Rain = 0
KPMS 200250Z 30003KT M02/M03 A3026 RMK A01 T10211034  RH  092%=      5-min Rain = 0
KPMS 200255Z 29001KT M02/M04 A3026 RMK A01 T10231036  RH  092%=      5-min Rain = 0
KPMS 200300Z 28000KT M02/M04 A3026 RMK A01 T10231035  RH  092%=      5-min Rain = 0
KPMS 200305Z 34001KT M02/M03 A3025 RMK A01 T10221034  RH  093%=      5-min Rain = 0
KPMS 200310Z 34001KT M02/M03 A3026 RMK A01 T10201031  RH  093%=      5-min Rain = 0
KPMS 200315Z 32000KT M02/M03 A3025 RMK A01 T10201033  RH  092%=      5-min Rain = 0
KPMS 200320Z 35001KT M02/M03 A3026 RMK A01 T10211033  RH  092%=      5-min Rain = 0
KPMS 200325Z 00001KT M02/M03 A3025 RMK A01 T10191031  RH  093%=      5-min Rain = 0
KPMS 200330Z 05002KT M02/M03 A3025 RMK A01 T10181031  RH  092%=      5-min Rain = 0
KPMS 200335Z 05003KT M03/M04 A3025 RMK A01 T10251042  RH  089%=      5-min Rain = 0
KPMS 200340Z 08001KT M03/M05 A3025 RMK A01 T10341050  RH  090%=      5-min Rain = 0
KPMS 200345Z 00000KT M04/M05 A3024 RMK A01 T10391051  RH  092%=      5-min Rain = 0
KPMS 200350Z 10000KT M04/M04 A3024 RMK A01 T10351044  RH  095%=      5-min Rain = 0
KPMS 200355Z 09003KT M03/M04 A3023 RMK A01 T10311039  RH  095%=      5-min Rain = 0
KPMS 200400Z 07003KT M04/M04 A3024 RMK A01 T10351044  RH  094%=      5-min Rain = 0
KPMS 200405Z 07003KT M04/M05 A3023 RMK A01 T10361046  RH  094%=      5-min Rain = 0
KPMS 200410Z 08002KT M04/M05 A3022 RMK A01 T10421053  RH  093%=      5-min Rain = 0
KPMS 200415Z 07003KT M05/M06 A3023 RMK A01 T10471056  RH  095%=      5-min Rain = 0
KPMS 200420Z 06005KT M05/M05 A3023 RMK A01 T10451053  RH  095%=      5-min Rain = 0
KPMS 200425Z 06005KT M05/M06 A3023 RMK A01 T10481055  RH  095%=      5-min Rain = 0
KPMS 200430Z 06005KT M05/M05 A3024 RMK A01 T10451053  RH  096%=      5-min Rain = 0
KPMS 200435Z 08001KT M04/M05 A3024 RMK A01 T10411047  RH  097%=      5-min Rain = 0
KPMS 200440Z 29000KT M04/M05 A3025 RMK A01 T10401047  RH  096%=      5-min Rain = 0
KPMS 200445Z 26001KT M04/M05 A3024 RMK A01 T10401047  RH  096%=      5-min Rain = 0
KPMS 200450Z 25001KT M04/M05 A3024 RMK A01 T10401048  RH  096%=      5-min Rain = 0
KPMS 200455Z 17001KT M04/M05 A3023 RMK A01 T10431051  RH  095%=      5-min Rain = 0
KPMS 200500Z 15000KT M05/M05 A3024 RMK A01 T10451052  RH  096%=      5-min Rain = 0
KPMS 200505Z 11002KT M04/M05 A3024 RMK A01 T10441050  RH  096%=      5-min Rain = 0
KPMS 200510Z 08003KT M04/M05 A3025 RMK A01 T10441050  RH  097%=      5-min Rain = 0
KPMS 200515Z 07002KT M04/M05 A3026 RMK A01 T10421048  RH  097%=      5-min Rain = 0
KPMS 200520Z 07002KT M04/M05 A3026 RMK A01 T10421048  RH  097%=      5-min Rain = 0
KPMS 200525Z 10004KT M04/M05 A3026 RMK A01 T10421048  RH  097%=      5-min Rain = 0
KPMS 200530Z 11006KT M05/M06 A3025 RMK A01 T10481056  RH  095%=      5-min Rain = 0
KPMS 200535Z 12007KT M06/M07 A3025 RMK A01 T10591068  RH  094%=      5-min Rain = 0
KPMS 200540Z 13006KT M06/M06 A3025 RMK A01 T10581063  RH  098%=      5-min Rain = 0
KPMS 200545Z 12006KT M05/M05 A3025 RMK A01 T10501053  RH  099%=      5-min Rain = 0
KPMS 200550Z 14006KT M05/M06 A3025 RMK A01 T10501056  RH  097%=      5-min Rain = 0
KPMS 200555Z 15005KT M05/M06 A3025 RMK A01 T10501055  RH  098%=      5-min Rain = 0

Page generated in 0.0461 seconds.